createdAt,value
2022-10-17T00:00:45.031Z,13.62
2022-10-17T00:03:11.869Z,13.58
2022-10-17T00:05:47.223Z,13.55
2022-10-17T00:08:16.556Z,13.42
2022-10-17T00:10:43.670Z,13.47
2022-10-17T00:13:11.912Z,13.40
2022-10-17T00:15:38.707Z,13.46
2022-10-17T00:18:05.348Z,13.45
2022-10-17T00:20:35.605Z,13.29
2022-10-17T00:23:02.241Z,13.36
2022-10-17T00:25:28.917Z,13.27
2022-10-17T00:27:55.808Z,13.24
2022-10-17T00:30:22.606Z,13.27
2022-10-17T00:32:49.254Z,13.29
2022-10-17T00:35:15.984Z,13.25
2022-10-17T00:37:42.737Z,13.18
2022-10-17T00:40:10.260Z,13.17
2022-10-17T00:42:37.742Z,13.21
2022-10-17T00:45:08.205Z,13.19
2022-10-17T00:47:36.719Z,13.17
2022-10-17T00:50:06.679Z,13.10
2022-10-17T00:52:34.123Z,12.94
2022-10-17T00:55:09.378Z,12.87
2022-10-17T00:57:36.206Z,12.96
2022-10-17T01:00:08.420Z,13.08
2022-10-17T01:02:35.458Z,12.85
2022-10-17T01:05:02.453Z,13.07
2022-10-17T01:07:33.300Z,12.76
2022-10-17T01:10:05.183Z,12.89
2022-10-17T01:12:46.261Z,12.84
2022-10-17T01:15:21.587Z,12.84
2022-10-17T01:18:08.690Z,12.91
2022-10-17T01:21:12.993Z,12.87
2022-10-17T01:24:02.186Z,12.80
2022-10-17T01:26:56.709Z,12.82
2022-10-17T01:29:46.803Z,12.85
2022-10-17T01:32:37.197Z,12.89
2022-10-17T01:35:19.293Z,12.87
2022-10-17T01:38:13.370Z,12.91
2022-10-17T01:40:44.478Z,12.91
2022-10-17T01:43:23.439Z,12.78
2022-10-17T01:45:57.188Z,12.79
2022-10-17T01:48:29.710Z,12.82
2022-10-17T01:51:05.920Z,12.75
2022-10-17T01:53:37.001Z,12.53
2022-10-17T01:56:08.437Z,12.67
2022-10-17T01:58:44.139Z,12.58
2022-10-17T02:01:13.017Z,12.41
2022-10-17T02:03:43.594Z,12.29
2022-10-17T02:06:10.422Z,12.31
2022-10-17T02:08:45.140Z,12.11
2022-10-17T02:11:18.987Z,12.24
2022-10-17T02:16:52.953Z,11.99
2022-10-17T02:19:46.334Z,12.06
2022-10-17T02:22:18.477Z,12.06
2022-10-17T02:24:48.048Z,12.02
2022-10-17T02:27:21.612Z,12.02
2022-10-17T02:30:03.121Z,12.08
2022-10-17T02:33:01.866Z,12.07
2022-10-17T02:35:32.940Z,11.98
2022-10-17T02:38:00.773Z,11.94
2022-10-17T02:40:30.709Z,12.06
2022-10-17T02:42:59.970Z,12.13
2022-10-17T02:45:30.382Z,12.16
2022-10-17T02:48:03.334Z,12.14
2022-10-17T02:50:45.882Z,12.18
2022-10-17T02:53:27.162Z,12.17
2022-10-17T02:55:59.256Z,12.15
2022-10-17T02:58:32.752Z,12.24
2022-10-17T03:01:01.078Z,12.10
2022-10-17T03:03:31.535Z,12.26
2022-10-17T03:06:01.453Z,11.81
2022-10-17T03:08:28.215Z,12.11
2022-10-17T03:10:56.151Z,11.97
2022-10-17T03:13:23.382Z,12.00
2022-10-17T03:15:50.226Z,11.97
2022-10-17T03:18:17.096Z,11.99
2022-10-17T03:20:44.774Z,11.94
2022-10-17T03:23:11.663Z,11.88
2022-10-17T03:25:38.565Z,11.78
2022-10-17T03:28:05.572Z,11.86
2022-10-17T03:30:33.660Z,11.85
2022-10-17T03:33:00.551Z,11.81
2022-10-17T03:35:27.787Z,11.99
2022-10-17T03:37:55.667Z,11.92
2022-10-17T03:40:23.398Z,11.93
2022-10-17T03:42:50.087Z,11.95
2022-10-17T03:45:16.923Z,11.95
2022-10-17T03:47:44.455Z,11.94
2022-10-17T03:50:11.267Z,11.91
2022-10-17T03:52:38.844Z,11.85
2022-10-17T03:55:05.918Z,11.85
2022-10-17T03:57:35.015Z,11.83
2022-10-17T04:00:02.085Z,11.79
2022-10-17T04:02:29.895Z,11.84
2022-10-17T04:04:57.534Z,11.85
2022-10-17T04:07:24.226Z,11.88
2022-10-17T04:09:50.884Z,11.91
2022-10-17T04:12:19.593Z,11.90
2022-10-17T04:14:46.685Z,11.74
2022-10-17T04:17:14.389Z,11.86
2022-10-17T04:19:41.107Z,11.85
2022-10-17T04:22:08.615Z,11.83
2022-10-17T04:24:37.614Z,11.77
2022-10-17T04:27:24.215Z,11.49
2022-10-17T04:29:50.988Z,11.78
2022-10-17T04:32:25.962Z,11.86
2022-10-17T04:35:00.968Z,11.78
2022-10-17T04:37:30.199Z,11.96
2022-10-17T04:39:57.560Z,12.03
2022-10-17T04:42:24.208Z,12.36
2022-10-17T04:44:53.198Z,12.58
2022-10-17T04:47:22.097Z,12.63
2022-10-17T04:49:48.910Z,12.65
2022-10-17T04:52:16.474Z,12.68
2022-10-17T04:54:44.800Z,12.50
2022-10-17T04:57:13.514Z,12.54
2022-10-17T04:59:42.359Z,12.45
2022-10-17T05:02:21.254Z,12.42
2022-10-17T05:04:47.939Z,12.49
2022-10-17T05:07:15.627Z,12.50
2022-10-17T05:09:45.239Z,12.45
2022-10-17T05:12:12.313Z,12.36
2022-10-17T05:14:42.595Z,11.98
2022-10-17T05:17:09.275Z,12.33
2022-10-17T05:19:37.167Z,12.15
2022-10-17T05:22:04.618Z,12.20
2022-10-17T05:24:31.364Z,12.05
2022-10-17T05:26:58.143Z,12.04
2022-10-17T05:29:24.887Z,11.91
2022-10-17T05:31:59.715Z,11.76
2022-10-17T05:34:26.591Z,11.50
2022-10-17T05:36:53.542Z,11.58
2022-10-17T05:39:23.321Z,11.31
2022-10-17T05:41:52.402Z,11.47
2022-10-17T05:44:19.393Z,11.57
2022-10-17T05:46:52.391Z,11.53
2022-10-17T05:49:32.531Z,11.47
2022-10-17T05:52:01.591Z,11.31
2022-10-17T05:54:32.714Z,11.39
2022-10-17T05:57:00.661Z,11.42
2022-10-17T05:59:30.767Z,11.49
2022-10-17T06:02:03.210Z,11.52
2022-10-17T06:04:30.425Z,11.53
2022-10-17T06:06:57.272Z,11.56
2022-10-17T06:09:24.464Z,11.57
2022-10-17T06:11:53.778Z,11.50
2022-10-17T06:14:20.664Z,11.45
2022-10-17T06:16:50.818Z,11.39
2022-10-17T06:19:17.605Z,11.26
2022-10-17T06:21:46.323Z,11.50
2022-10-17T06:24:15.823Z,11.51
2022-10-17T06:26:43.187Z,11.53
2022-10-17T06:29:12.394Z,11.52
2022-10-17T06:31:51.144Z,11.30
2022-10-17T06:34:18.887Z,11.49
2022-10-17T06:36:46.373Z,11.44
2022-10-17T06:39:13.263Z,11.59
2022-10-17T06:41:58.554Z,11.57
2022-10-17T06:44:40.312Z,11.53
2022-10-17T06:47:30.212Z,11.80
2022-10-17T06:49:59.506Z,11.87
2022-10-17T06:52:34.748Z,11.97
2022-10-17T06:55:31.939Z,12.01
2022-10-17T06:58:20.945Z,12.04
2022-10-17T07:03:43.749Z,12.11
2022-10-17T07:06:11.845Z,12.20
2022-10-17T07:08:45.139Z,12.37
2022-10-17T07:11:18.938Z,12.48
2022-10-17T07:13:45.862Z,12.59
2022-10-17T07:16:13.928Z,12.73
2022-10-17T07:18:42.212Z,12.89
2022-10-17T07:21:09.365Z,13.26
2022-10-17T07:23:38.517Z,13.57
2022-10-17T07:26:11.426Z,13.66
2022-10-17T07:28:42.060Z,13.91
2022-10-17T07:31:25.713Z,14.15
2022-10-17T07:33:52.450Z,14.43
2022-10-17T07:36:19.934Z,14.50
2022-10-17T07:38:47.205Z,14.62
2022-10-17T07:41:17.868Z,14.97
2022-10-17T07:43:47.721Z,15.14
2022-10-17T07:46:16.266Z,15.35
2022-10-17T07:48:43.453Z,15.41
2022-10-17T07:51:10.623Z,15.68
2022-10-17T07:53:38.905Z,15.87
2022-10-17T07:56:09.693Z,15.84
2022-10-17T07:58:37.732Z,16.13
2022-10-17T08:01:14.718Z,16.41
2022-10-17T08:03:44.207Z,16.75
2022-10-17T08:06:11.468Z,17.04
2022-10-17T08:08:38.217Z,17.18
2022-10-17T08:11:07.416Z,17.35
2022-10-17T08:13:34.702Z,17.67
2022-10-17T08:16:03.376Z,17.81
2022-10-17T08:18:30.540Z,17.96
2022-10-17T08:21:01.350Z,18.18
2022-10-17T08:23:28.559Z,18.46
2022-10-17T08:25:58.399Z,18.66
2022-10-17T08:28:25.234Z,18.92
2022-10-17T08:30:52.007Z,19.15
2022-10-17T08:33:18.704Z,18.78
2022-10-17T08:35:45.434Z,19.21
2022-10-17T08:38:13.395Z,19.32
2022-10-17T08:40:42.808Z,19.37
2022-10-17T08:43:45.629Z,19.78
2022-10-17T08:46:12.817Z,20.05
2022-10-17T08:48:46.289Z,20.24
2022-10-17T08:51:23.295Z,20.68
2022-10-17T08:54:15.460Z,20.93
2022-10-17T08:56:49.609Z,21.30
2022-10-17T08:59:30.689Z,21.45
2022-10-17T09:02:30.973Z,21.69
2022-10-17T09:05:22.569Z,21.78
2022-10-17T09:08:09.122Z,21.84
2022-10-17T09:10:44.604Z,21.98
2022-10-17T09:16:25.011Z,22.63
2022-10-17T09:19:01.170Z,22.71
2022-10-17T09:21:43.145Z,22.93
2022-10-17T09:24:16.342Z,22.89
2022-10-17T09:26:46.110Z,23.23
2022-10-17T09:29:21.733Z,23.13
2022-10-17T09:32:01.663Z,23.12
2022-10-17T09:34:31.156Z,23.18
2022-10-17T09:36:59.894Z,23.25
2022-10-17T09:39:29.204Z,22.66
2022-10-17T09:41:59.098Z,22.72
2022-10-17T09:44:36.051Z,23.25
2022-10-17T09:47:14.692Z,23.24
2022-10-17T09:49:44.162Z,23.21
2022-10-17T09:52:14.250Z,23.00
2022-10-17T09:55:21.358Z,23.29
2022-10-17T09:58:00.171Z,23.43
2022-10-17T10:00:33.127Z,23.47
2022-10-17T10:03:10.108Z,23.40
2022-10-17T10:05:36.868Z,23.22
2022-10-17T10:08:11.477Z,23.26
2022-10-17T10:10:42.954Z,23.32
2022-10-17T10:13:22.152Z,23.53
2022-10-17T10:15:50.678Z,24.12
2022-10-17T10:18:32.351Z,24.65
2022-10-17T10:21:17.380Z,24.97
2022-10-17T10:23:45.928Z,24.53
2022-10-17T10:26:22.263Z,24.52
2022-10-17T10:28:56.650Z,24.19
2022-10-17T10:31:30.281Z,24.06
2022-10-17T10:33:59.187Z,23.90
2022-10-17T10:36:26.162Z,24.46
2022-10-17T10:39:01.227Z,24.68
2022-10-17T10:41:47.412Z,25.11
2022-10-17T10:44:15.557Z,25.55
2022-10-17T10:46:42.274Z,25.87
2022-10-17T10:49:29.585Z,25.66
2022-10-17T10:52:00.400Z,25.85
2022-10-17T10:54:42.318Z,26.25
2022-10-17T10:57:19.879Z,26.53
2022-10-17T11:00:12.427Z,26.85
2022-10-17T11:03:17.448Z,26.88
2022-10-17T11:05:59.239Z,26.12
2022-10-17T11:08:50.196Z,26.32
2022-10-17T11:11:39.327Z,26.00
2022-10-17T11:14:21.219Z,25.87
2022-10-17T11:17:01.012Z,25.74
2022-10-17T11:19:59.424Z,25.56
2022-10-17T11:22:38.410Z,25.53
2022-10-17T11:25:17.851Z,25.91
2022-10-17T11:27:44.462Z,26.04
2022-10-17T11:30:15.176Z,26.17
2022-10-17T11:32:49.789Z,25.98
2022-10-17T11:35:40.339Z,26.00
2022-10-17T11:38:21.263Z,26.24
2022-10-17T11:40:54.393Z,26.03
2022-10-17T11:43:29.362Z,26.08
2022-10-17T11:46:01.913Z,26.30
2022-10-17T11:48:48.685Z,26.52
2022-10-17T11:54:09.757Z,26.67
2022-10-17T11:56:44.976Z,27.13
2022-10-17T11:59:45.723Z,27.13
2022-10-17T12:02:29.148Z,27.21
2022-10-17T12:05:31.942Z,27.79
2022-10-17T12:08:12.543Z,27.89
2022-10-17T12:10:49.695Z,27.45
2022-10-17T12:13:28.411Z,27.13
2022-10-17T12:15:56.053Z,27.13
2022-10-17T12:18:29.286Z,27.46
2022-10-17T12:20:58.566Z,27.82
2022-10-17T12:23:30.684Z,28.07
2022-10-17T12:26:06.418Z,28.54
2022-10-17T12:28:46.753Z,28.18
2022-10-17T12:31:16.281Z,27.61
2022-10-17T12:33:46.106Z,27.27
2022-10-17T12:36:18.786Z,27.37
2022-10-17T12:38:49.970Z,26.50
2022-10-17T12:41:37.343Z,26.17
2022-10-17T12:44:12.923Z,26.39
2022-10-17T12:46:49.725Z,26.35
2022-10-17T12:49:34.451Z,26.57
2022-10-17T12:52:06.016Z,26.47
2022-10-17T12:54:47.771Z,26.71
2022-10-17T12:57:44.143Z,26.53
2022-10-17T13:00:25.332Z,26.45
2022-10-17T13:02:54.645Z,26.47
2022-10-17T13:05:40.255Z,26.51
2022-10-17T13:08:14.834Z,26.98
2022-10-17T13:10:49.113Z,27.34
2022-10-17T13:13:23.658Z,27.55
2022-10-17T13:15:54.232Z,27.11
2022-10-17T13:18:24.877Z,26.56
2022-10-17T13:20:58.525Z,26.52
2022-10-17T13:23:29.073Z,26.30
2022-10-17T13:26:07.921Z,26.15
2022-10-17T13:28:39.054Z,26.02
2022-10-17T13:31:06.800Z,26.03
2022-10-17T13:33:35.978Z,26.01
2022-10-17T13:36:07.430Z,25.63
2022-10-17T13:38:36.758Z,25.35
2022-10-17T13:41:34.369Z,25.33
2022-10-17T13:44:02.174Z,25.34
2022-10-17T13:46:37.851Z,25.26
2022-10-17T13:49:18.769Z,25.31
2022-10-17T13:51:47.984Z,25.44
2022-10-17T13:54:40.174Z,25.53
2022-10-17T13:57:21.573Z,25.51
2022-10-17T14:00:02.927Z,25.39
2022-10-17T14:02:41.003Z,25.42
2022-10-17T14:05:17.758Z,25.24
2022-10-17T14:08:10.630Z,25.15
2022-10-17T14:10:40.137Z,25.19
2022-10-17T14:13:15.961Z,25.03
2022-10-17T14:15:46.037Z,25.13
2022-10-17T14:18:20.955Z,24.90
2022-10-17T14:23:41.801Z,24.89
2022-10-17T14:26:15.476Z,24.94
2022-10-17T14:28:45.281Z,24.94
2022-10-17T14:31:20.939Z,24.93
2022-10-17T14:33:50.855Z,24.95
2022-10-17T14:36:19.379Z,24.86
2022-10-17T14:38:49.550Z,24.79
2022-10-17T14:44:32.741Z,24.41
2022-10-17T14:47:18.625Z,24.45
2022-10-17T14:50:01.992Z,24.35
2022-10-17T14:52:31.033Z,24.27
2022-10-17T14:55:00.350Z,24.35
2022-10-17T14:57:29.084Z,24.22
2022-10-17T14:59:57.241Z,24.25
2022-10-17T15:02:30.270Z,24.20
2022-10-17T15:04:57.570Z,24.05
2022-10-17T15:07:24.573Z,23.95
2022-10-17T15:09:53.440Z,24.10
2022-10-17T15:12:25.119Z,23.82
2022-10-17T15:14:53.134Z,23.96
2022-10-17T15:17:29.604Z,23.88
2022-10-17T15:19:56.947Z,23.95
2022-10-17T15:22:24.197Z,23.96
2022-10-17T15:24:50.955Z,23.76
2022-10-17T15:27:20.792Z,23.86
2022-10-17T15:29:48.616Z,23.79
2022-10-17T15:32:16.039Z,23.65
2022-10-17T15:34:43.099Z,23.50
2022-10-17T15:37:22.414Z,23.58
2022-10-17T15:39:53.328Z,23.57
2022-10-17T15:42:22.676Z,23.50
2022-10-17T15:44:50.438Z,23.43
2022-10-17T15:47:34.999Z,23.40
2022-10-17T15:50:02.722Z,23.32
2022-10-17T15:52:29.580Z,23.18
2022-10-17T15:54:58.493Z,23.20
2022-10-17T15:57:31.844Z,23.13
2022-10-17T16:00:00.452Z,23.03
2022-10-17T16:02:27.776Z,22.92
2022-10-17T16:04:54.639Z,22.78
2022-10-17T16:07:21.877Z,22.77
2022-10-17T16:09:48.574Z,22.56
2022-10-17T16:12:26.463Z,22.45
2022-10-17T16:14:53.213Z,22.34
2022-10-17T16:17:19.943Z,22.15
2022-10-17T16:19:46.665Z,21.76
2022-10-17T16:22:32.498Z,21.65
2022-10-17T16:25:07.480Z,21.51
2022-10-17T16:27:34.264Z,21.46
2022-10-17T16:30:01.057Z,21.33
2022-10-17T16:32:28.011Z,21.26
2022-10-17T16:34:54.944Z,21.13
2022-10-17T16:37:21.620Z,20.97
2022-10-17T16:39:52.316Z,20.86
2022-10-17T16:42:20.561Z,20.77
2022-10-17T16:44:48.160Z,20.67
2022-10-17T16:47:15.556Z,20.54
2022-10-17T16:49:45.175Z,20.40
2022-10-17T16:52:12.506Z,20.28
2022-10-17T16:54:39.231Z,20.15
2022-10-17T16:57:05.991Z,19.96
2022-10-17T16:59:32.708Z,19.70
2022-10-17T17:01:59.375Z,19.77
2022-10-17T17:04:26.070Z,19.66
2022-10-17T17:06:52.780Z,19.32
2022-10-17T17:09:19.845Z,19.43
2022-10-17T17:11:46.647Z,19.38
2022-10-17T17:14:13.625Z,19.21
2022-10-17T17:16:40.878Z,19.29
2022-10-17T17:19:11.618Z,19.23
2022-10-17T17:21:38.536Z,19.05
2022-10-17T17:24:06.070Z,19.08
2022-10-17T17:26:37.573Z,19.02
2022-10-17T17:29:04.954Z,18.97
2022-10-17T17:31:33.641Z,18.77
2022-10-17T17:34:01.543Z,18.86
2022-10-17T17:36:31.416Z,18.72
2022-10-17T17:39:00.204Z,18.68
2022-10-17T17:41:27.810Z,18.51
2022-10-17T17:43:54.912Z,18.47
2022-10-17T17:46:22.993Z,18.43
2022-10-17T17:48:51.145Z,18.34
2022-10-17T17:51:20.685Z,18.22
2022-10-17T17:53:48.863Z,18.06
2022-10-17T17:56:21.611Z,18.04
2022-10-17T17:58:53.455Z,18.05
2022-10-17T18:01:23.451Z,17.99
2022-10-17T18:03:52.214Z,17.92
2022-10-17T18:06:20.668Z,17.87
2022-10-17T18:08:53.025Z,17.81
2022-10-17T18:11:22.020Z,17.58
2022-10-17T18:14:01.041Z,17.61
2022-10-17T18:16:28.922Z,17.66
2022-10-17T18:18:55.841Z,17.62
2022-10-17T18:21:22.823Z,17.38
2022-10-17T18:23:51.803Z,17.52
2022-10-17T18:26:19.004Z,17.47
2022-10-17T18:28:46.207Z,17.39
2022-10-17T18:31:19.090Z,17.35
2022-10-17T18:33:46.422Z,17.29
2022-10-17T18:36:15.176Z,17.23
2022-10-17T18:38:42.576Z,17.15
2022-10-17T18:41:12.195Z,17.11
2022-10-17T18:43:40.551Z,17.07
2022-10-17T18:46:13.875Z,17.05
2022-10-17T18:48:44.520Z,17.05
2022-10-17T18:51:12.944Z,16.96
2022-10-17T18:53:41.356Z,16.84
2022-10-17T18:56:08.817Z,16.95
2022-10-17T18:58:37.530Z,16.96
2022-10-17T19:01:06.904Z,17.07
2022-10-17T19:03:33.789Z,17.07
2022-10-17T19:06:07.132Z,17.02
2022-10-17T19:08:34.958Z,17.06
2022-10-17T19:11:07.052Z,16.97
2022-10-17T19:13:34.777Z,16.91
2022-10-17T19:16:06.935Z,16.81
2022-10-17T19:18:34.726Z,16.77
2022-10-17T19:21:06.444Z,16.57
2022-10-17T19:23:35.861Z,16.55
2022-10-17T19:26:11.152Z,16.44
2022-10-17T19:28:41.528Z,16.51
2022-10-17T19:31:08.942Z,16.44
2022-10-17T19:33:36.428Z,16.41
2022-10-17T19:36:08.972Z,16.35
2022-10-17T19:38:36.583Z,16.42
2022-10-17T19:41:12.361Z,16.41
2022-10-17T19:43:40.643Z,16.39
2022-10-17T19:46:10.687Z,16.38
2022-10-17T19:48:39.050Z,16.37
2022-10-17T19:51:08.087Z,16.41
2022-10-17T19:53:35.557Z,16.42
2022-10-17T19:56:03.060Z,16.38
2022-10-17T19:58:29.953Z,16.43
2022-10-17T20:01:00.974Z,16.38
2022-10-17T20:03:28.775Z,16.40
2022-10-17T20:05:55.846Z,16.33
2022-10-17T20:08:22.702Z,16.34
2022-10-17T20:10:49.440Z,16.33
2022-10-17T20:13:16.201Z,16.31
2022-10-17T20:15:42.851Z,16.33
2022-10-17T20:18:09.744Z,16.33
2022-10-17T20:20:37.425Z,16.23
2022-10-17T20:23:04.739Z,16.32
2022-10-17T20:25:33.304Z,16.13
2022-10-17T20:28:00.127Z,16.13
2022-10-17T20:30:27.648Z,15.96
2022-10-17T20:32:55.671Z,15.78
2022-10-17T20:35:23.193Z,15.80
2022-10-17T20:37:50.189Z,15.80
2022-10-17T20:40:34.062Z,15.90
2022-10-17T20:43:01.743Z,16.00
2022-10-17T20:45:43.683Z,16.01
2022-10-17T20:48:15.976Z,16.08
2022-10-17T20:50:43.661Z,16.06
2022-10-17T20:53:35.587Z,16.12
2022-10-17T20:56:08.196Z,16.13
2022-10-17T20:58:35.568Z,16.05
2022-10-17T21:01:09.672Z,16.13
2022-10-17T21:03:39.947Z,15.76
2022-10-17T21:06:10.250Z,16.09
2022-10-17T21:08:36.962Z,16.01
2022-10-17T21:11:13.226Z,15.98
2022-10-17T21:13:40.736Z,15.89
2022-10-17T21:16:14.521Z,15.85
2022-10-17T21:18:42.227Z,15.85
2022-10-17T21:21:14.531Z,15.90
2022-10-17T21:23:43.350Z,15.92
2022-10-17T21:26:12.567Z,15.89
2022-10-17T21:28:40.158Z,15.71
2022-10-17T21:31:08.991Z,15.77
2022-10-17T21:33:35.880Z,15.59
2022-10-17T21:36:02.743Z,15.66
2022-10-17T21:38:29.421Z,15.53
2022-10-17T21:40:56.214Z,15.63
2022-10-17T21:43:23.086Z,15.64
2022-10-17T21:45:49.720Z,15.55
2022-10-17T21:48:16.360Z,15.47
2022-10-17T21:50:43.059Z,15.44
2022-10-17T21:53:09.968Z,15.41
2022-10-17T21:55:37.545Z,15.51
2022-10-17T21:58:05.079Z,15.53
2022-10-17T22:00:31.843Z,15.54
2022-10-17T22:02:58.494Z,15.42
2022-10-17T22:05:25.197Z,15.28
2022-10-17T22:07:51.856Z,15.32
2022-10-17T22:10:18.630Z,15.09
2022-10-17T22:12:45.350Z,15.17
2022-10-17T22:15:12.011Z,15.13
2022-10-17T22:17:38.699Z,15.29
2022-10-17T22:20:05.781Z,15.31
2022-10-17T22:22:32.523Z,15.21
2022-10-17T22:24:59.185Z,15.29
2022-10-17T22:27:25.891Z,15.30
2022-10-17T22:29:52.511Z,15.20
2022-10-17T22:32:21.727Z,15.27
2022-10-17T22:34:49.300Z,15.30
2022-10-17T22:37:15.925Z,15.32
2022-10-17T22:39:42.614Z,15.33
2022-10-17T22:42:09.338Z,15.29
2022-10-17T22:44:36.096Z,15.34
2022-10-17T22:47:02.744Z,15.32
2022-10-17T22:49:29.983Z,15.32
2022-10-17T22:51:56.607Z,15.32
2022-10-17T22:54:23.345Z,15.33
2022-10-17T22:56:50.062Z,15.31
2022-10-17T22:59:16.759Z,15.27
2022-10-17T23:01:43.470Z,15.18
2022-10-17T23:04:10.215Z,15.20
2022-10-17T23:06:36.839Z,15.21
2022-10-17T23:09:03.759Z,15.16
2022-10-17T23:11:30.380Z,15.22
2022-10-17T23:13:57.041Z,15.08
2022-10-17T23:16:23.716Z,15.13
2022-10-17T23:18:50.337Z,15.05
2022-10-17T23:21:16.954Z,14.79
2022-10-17T23:23:43.651Z,14.78
2022-10-17T23:26:13.421Z,14.84
2022-10-17T23:28:41.159Z,14.77
2022-10-17T23:31:12.642Z,14.72
2022-10-17T23:33:41.269Z,14.62
2022-10-17T23:36:10.520Z,14.70
2022-10-17T23:38:37.740Z,14.80
2022-10-17T23:41:04.520Z,14.81
2022-10-17T23:43:31.709Z,14.84
2022-10-17T23:45:58.358Z,14.80
2022-10-17T23:48:25.077Z,14.83
2022-10-17T23:50:51.764Z,14.71
2022-10-17T23:53:18.484Z,14.61
2022-10-17T23:55:45.126Z,14.65
2022-10-17T23:58:11.789Z,14.67
